KHAI/HAI METAR and TAF weather

Enter ICAO airport designator
Station Type Date Time Source
KHAI METAR 2020/11/28 19:15 UTC NOAA

KHAI 281915Z AUTO 25009KT 10SM CLR 08/M05 A3012 RMK AO2 T00781050


Station Type Date Time Source
KHAI Decoded METAR 2020/11/28 19:15 UTC NOAA

Station name not available
Nov 28, 2020 - 02:15 PM EST / 2020.11.28 1915 UTC
Wind: from the WSW (250 degrees) at 10 MPH (9 KT):0
Visibility: 10 mile(s):0
Sky conditions: clear
Temperature: 46.0 F (7.8 C)
Dew Point: 23.0 F (-5.0 C)
Relative Humidity: 39%
Pressure (altimeter): 30.12 in. Hg (1019 hPa)
ob: KHAI 281915Z AUTO 25009KT 10SM CLR 08/M05 A3012 RMK AO2 T00781050
cycle: 19

Station Type Date Time Source
KHAI TAF UTC NOAA

Error!

Example: see airport list